Time;durP1;ratioP1;P1;durP2;ratioP2;P2;SDS_P1;SDS_P2;PMS_P1;PMS_P2;Temp;Humidity;BMP_temperature;BMP_pressure;BME280_temperature;BME280_humidity;BME280_pressure;Samples;Min_cycle;Max_cycle;Signal;HPM_P1;HPM_P2
2022/05/01 00:01:31;;;;;;;32.70;18.38;;;13.40;99.90;;;;;;5993586;23;21054;-92
2022/05/01 00:03:58;;;;;;;42.47;18.33;;;13.30;99.90;;;;;;4850969;29;20387;-86
2022/05/01 00:06:24;;;;;;;40.15;19.70;;;13.30;99.90;;;;;;4865009;29;20064;-86
2022/05/01 00:08:52;;;;;;;39.00;18.55;;;13.30;99.90;;;;;;4865276;29;20562;-85
2022/05/01 00:11:19;;;;;;;40.58;19.80;;;13.40;99.90;;;;;;4849903;29;20029;-85
2022/05/01 00:13:46;;;;;;;39.65;19.65;;;13.40;99.90;;;;;;4865138;29;20044;-85
2022/05/01 00:16:13;;;;;;;37.80;18.15;;;13.50;99.90;;;;;;4849499;29;20463;-86
2022/05/01 00:18:41;;;;;;;37.80;18.38;;;13.50;99.90;;;;;;4849628;29;20085;-85
2022/05/01 00:21:07;;;;;;;40.63;19.35;;;13.60;99.90;;;;;;4849312;29;20056;-86
2022/05/01 00:23:34;;;;;;;36.20;18.85;;;13.70;99.90;;;;;;4849513;29;20124;-86
2022/05/01 00:26:03;;;;;;;52.80;26.30;;;13.60;99.90;;;;;;4849467;29;20029;-85
2022/05/01 00:28:32;;;;;;;55.65;32.08;;;13.50;99.90;;;;;;4849262;29;20035;-85
2022/05/01 00:30:59;;;;;;;58.53;31.10;;;13.50;99.90;;;;;;4864564;29;20138;-86
2022/05/01 00:36:26;;;;;;;49.45;24.75;;;13.40;99.90;;;;;;4864665;29;20055;-86
2022/05/01 00:38:58;;;;;;;42.83;23.20;;;13.40;99.90;;;;;;4864572;29;20033;-85
2022/05/01 00:41:27;;;;;;;43.55;21.38;;;13.50;99.90;;;;;;4849201;29;20105;-85
2022/05/01 00:44:08;;;;;;;34.78;18.60;;;13.50;99.90;;;;;;4849060;29;20036;-86
2022/05/01 00:46:41;;;;;;;39.22;20.52;;;13.60;99.90;;;;;;4864475;29;20119;-85
2022/05/01 00:49:18;;;;;;;40.13;20.05;;;13.60;99.90;;;;;;4864546;29;20483;-86
2022/05/01 00:51:49;;;;;;;48.00;20.30;;;13.60;99.90;;;;;;4864587;29;20033;-85
2022/05/01 00:54:18;;;;;;;46.05;23.40;;;13.60;99.90;;;;;;4849053;29;20398;-85
2022/05/01 00:56:49;;;;;;;59.50;28.40;;;13.50;99.90;;;;;;4848966;29;20065;-86
2022/05/01 00:59:16;;;;;;;58.22;30.52;;;13.50;99.90;;;;;;4848777;29;20056;-85
2022/05/01 01:01:46;;;;;;;55.33;29.80;;;13.60;99.90;;;;;;4878095;29;20048;-86
2022/05/01 01:04:13;;;;;;;55.83;31.10;;;13.50;99.90;;;;;;4830621;29;20386;-86
2022/05/01 01:06:41;;;;;;;56.78;31.27;;;13.50;99.90;;;;;;4830591;29;20033;-86
2022/05/01 01:09:10;;;;;;;58.17;29.13;;;13.50;99.90;;;;;;4830550;29;20054;-85
2022/05/01 01:11:38;;;;;;;46.80;27.10;;;13.40;99.90;;;;;;4830648;29;20032;-87
2022/05/01 01:14:05;;;;;;;48.58;25.50;;;13.50;99.90;;;;;;4830765;29;20034;-85
2022/05/01 01:16:37;;;;;;;47.67;23.17;;;13.50;99.90;;;;;;4830400;29;20049;-85
2022/05/01 01:19:06;;;;;;;45.33;20.92;;;13.40;99.90;;;;;;4830542;29;20529;-86
2022/05/01 01:21:33;;;;;;;33.33;19.75;;;13.50;99.90;;;;;;4830336;29;20042;-85
2022/05/01 01:24:03;;;;;;;42.25;18.77;;;13.50;99.90;;;;;;4845463;29;20057;-86
2022/05/01 01:26:32;;;;;;;30.85;17.10;;;13.50;99.90;;;;;;4830150;29;20522;-86
2022/05/01 01:29:00;;;;;;;35.95;17.35;;;13.50;99.90;;;;;;4830522;29;20037;-86
2022/05/01 01:31:43;;;;;;;30.42;16.42;;;13.50;99.90;;;;;;4830300;29;20514;-86
2022/05/01 01:34:12;;;;;;;30.33;16.42;;;13.60;99.90;;;;;;4830540;29;20047;-86
2022/05/01 01:36:42;;;;;;;32.40;16.42;;;13.60;99.90;;;;;;4830214;29;20033;-86
2022/05/01 01:39:09;;;;;;;27.70;15.57;;;13.60;99.90;;;;;;4845388;29;20033;-85
2022/05/01 01:41:39;;;;;;;26.48;15.52;;;13.50;99.90;;;;;;4830075;29;20034;-87
2022/05/01 01:44:08;;;;;;;26.27;15.43;;;13.50;99.90;;;;;;4830165;29;20460;-86
2022/05/01 01:46:41;;;;;;;30.75;14.25;;;13.40;99.90;;;;;;4830186;29;20029;-87
2022/05/01 01:49:10;;;;;;;33.10;13.48;;;13.30;99.90;;;;;;4830239;29;20112;-86
2022/05/01 01:51:37;;;;;;;22.85;12.18;;;13.40;99.90;;;;;;4830092;29;20368;-85
2022/05/01 01:54:06;;;;;;;26.40;12.43;;;13.30;99.90;;;;;;4830087;29;20041;-87
2022/05/01 01:56:32;;;;;;;27.40;13.00;;;13.30;99.90;;;;;;4845100;29;20037;-87
2022/05/01 01:58:59;;;;;;;22.58;10.98;;;13.40;99.90;;;;;;4845284;29;20026;-86
2022/05/01 02:01:25;;;;;;;21.35;11.35;;;13.40;99.90;;;;;;4845173;29;20132;-85
2022/05/01 02:03:52;;;;;;;24.20;11.23;;;13.40;99.90;;;;;;4880235;29;20048;-87
2022/05/01 02:06:19;;;;;;;20.15;11.20;;;13.40;99.90;;;;;;4882107;29;20040;-86
2022/05/01 02:08:47;;;;;;;21.13;11.07;;;13.40;99.90;;;;;;4870270;29;20021;-86
2022/05/01 02:11:14;;;;;;;21.45;11.38;;;13.40;99.90;;;;;;4885769;29;20033;-87
2022/05/01 02:13:41;;;;;;;21.67;10.57;;;13.50;99.90;;;;;;4870374;29;20084;-86
2022/05/01 02:16:08;;;;;;;21.55;10.30;;;13.50;99.90;;;;;;4885616;29;20119;-85
2022/05/01 02:18:34;;;;;;;29.02;10.20;;;13.50;99.90;;;;;;4869994;29;20036;-85
2022/05/01 02:23:46;;;;;;;17.27;8.90;;;13.50;99.90;;;;;;4885507;29;20033;-86
2022/05/01 02:26:13;;;;;;;15.73;9.35;;;13.50;99.90;;;;;;4885400;29;20043;-86
2022/05/01 02:28:40;;;;;;;25.70;10.88;;;13.50;99.90;;;;;;4869971;29;20080;-85
2022/05/01 02:31:07;;;;;;;19.30;10.65;;;13.50;99.90;;;;;;4885266;29;20052;-86
2022/05/01 02:33:33;;;;;;;22.92;11.02;;;13.50;99.90;;;;;;4885512;29;20028;-86
2022/05/01 02:36:00;;;;;;;20.08;10.68;;;13.50;99.90;;;;;;4869939;29;20064;-86
2022/05/01 02:38:26;;;;;;;19.65;10.18;;;13.50;99.90;;;;;;4869807;29;20032;-87
2022/05/01 02:40:53;;;;;;;19.52;10.50;;;13.40;99.90;;;;;;4885244;29;20045;-86
2022/05/01 02:43:19;;;;;;;22.15;9.60;;;13.30;99.90;;;;;;4869598;29;20031;-86
2022/05/01 02:45:46;;;;;;;21.80;10.07;;;13.30;99.90;;;;;;4884851;29;20033;-87
2022/05/01 02:48:12;;;;;;;21.98;9.85;;;13.40;99.90;;;;;;4885034;29;20025;-86
2022/05/01 02:50:40;;;;;;;17.33;9.43;;;13.50;99.90;;;;;;4869619;29;20048;-85
2022/05/01 02:53:06;;;;;;;18.38;9.60;;;13.40;99.90;;;;;;4885189;29;20112;-86
2022/05/01 02:55:33;;;;;;;18.73;8.80;;;13.50;99.90;;;;;;4869673;29;20043;-86
2022/05/01 02:58:00;;;;;;;17.48;8.77;;;13.50;99.90;;;;;;4884840;29;20553;-87
2022/05/01 03:00:26;;;;;;;16.58;8.60;;;13.50;99.90;;;;;;4884801;29;20076;-85
2022/05/01 03:02:55;;;;;;;14.60;8.82;;;13.50;99.90;;;;;;4881518;29;20041;-86
2022/05/01 03:05:24;;;;;;;12.63;8.77;;;13.60;99.90;;;;;;4881537;29;20517;-86
2022/05/01 03:07:51;;;;;;;18.55;9.07;;;13.60;99.90;;;;;;4881412;29;20546;-85
2022/05/01 03:10:17;;;;;;;15.50;8.38;;;13.60;99.90;;;;;;4881519;29;20117;-86
2022/05/01 03:12:44;;;;;;;17.83;9.65;;;13.60;99.90;;;;;;4866344;29;20037;-86
2022/05/01 03:15:10;;;;;;;16.25;8.77;;;13.60;99.90;;;;;;4881457;29;20033;-86
2022/05/01 03:23:07;;;;;;;14.90;8.02;;;13.60;99.90;;;;;;4881267;29;20093;-87
2022/05/01 03:25:34;;;;;;;15.75;7.85;;;13.60;99.90;;;;;;4865690;29;20040;-86
2022/05/01 03:28:01;;;;;;;13.13;8.50;;;13.60;99.90;;;;;;4881204;29;20056;-86
2022/05/01 03:30:28;;;;;;;13.07;7.45;;;13.60;99.90;;;;;;4881213;29;20022;-85
2022/05/01 03:32:54;;;;;;;11.90;7.22;;;13.60;99.90;;;;;;4881146;29;20402;-85
2022/05/01 03:35:21;;;;;;;16.25;6.95;;;13.60;99.90;;;;;;4881313;29;20025;-85
2022/05/01 03:37:47;;;;;;;16.23;7.57;;;13.60;99.90;;;;;;4881178;29;20040;-87
2022/05/01 03:40:16;;;;;;;12.45;7.20;;;13.60;99.90;;;;;;4880859;29;20049;-85
2022/05/01 03:42:43;;;;;;;14.05;7.40;;;13.50;99.90;;;;;;4880821;29;20036;-85
2022/05/01 03:45:11;;;;;;;11.27;7.22;;;13.50;99.90;;;;;;4880742;29;20150;-85
2022/05/01 03:47:37;;;;;;;19.20;7.68;;;13.50;99.90;;;;;;4881212;29;20029;-86
2022/05/01 03:50:05;;;;;;;15.00;7.65;;;13.50;99.90;;;;;;4880775;29;20148;-86
2022/05/01 03:52:33;;;;;;;13.20;7.10;;;13.50;99.90;;;;;;4880600;29;20044;-85
2022/05/01 03:55:00;;;;;;;14.68;7.30;;;13.40;99.90;;;;;;4880880;29;20029;-86
2022/05/01 03:57:27;;;;;;;15.13;7.60;;;13.40;99.90;;;;;;4880722;29;20160;-85
2022/05/01 03:59:53;;;;;;;14.23;7.10;;;13.40;99.90;;;;;;4880804;29;20608;-85
2022/05/01 04:02:20;;;;;;;17.35;7.68;;;13.40;99.90;;;;;;4880450;29;20380;-85
2022/05/01 04:04:48;;;;;;;19.50;8.25;;;13.40;99.90;;;;;;4864997;29;20025;-86
2022/05/01 04:07:15;;;;;;;14.98;7.60;;;13.30;99.90;;;;;;4865033;29;20037;-84
2022/05/01 04:09:42;;;;;;;13.73;6.60;;;13.40;99.90;;;;;;4849737;29;20144;-85
2022/05/01 04:12:08;;;;;;;16.02;7.85;;;13.40;99.90;;;;;;4880493;29;20041;-85
2022/05/01 04:14:36;;;;;;;16.85;7.97;;;13.50;99.90;;;;;;4880244;29;20120;-86
2022/05/01 04:17:02;;;;;;;13.93;7.72;;;13.50;99.90;;;;;;4849659;29;20033;-84
2022/05/01 04:19:29;;;;;;;12.15;7.32;;;13.60;99.90;;;;;;4880528;29;20116;-86
2022/05/01 04:21:56;;;;;;;14.82;7.25;;;13.60;99.90;;;;;;4880104;29;20041;-86
2022/05/01 04:24:24;;;;;;;12.05;7.30;;;13.60;99.90;;;;;;4849536;29;20034;-84
2022/05/01 04:26:50;;;;;;;16.02;6.68;;;13.60;99.90;;;;;;4880062;29;20096;-85
2022/05/01 04:32:05;;;;;;;16.65;7.13;;;13.60;99.90;;;;;;4880149;29;20029;-85
2022/05/01 04:34:33;;;;;;;18.00;7.50;;;13.60;99.90;;;;;;4880046;29;20124;-86
2022/05/01 04:37:00;;;;;;;13.27;6.85;;;13.70;99.90;;;;;;4879956;29;20523;-85
2022/05/01 04:39:27;;;;;;;14.00;7.53;;;13.70;99.90;;;;;;4879962;29;20059;-85
2022/05/01 04:41:54;;;;;;;12.95;6.93;;;13.90;99.90;;;;;;4880005;29;20089;-85
2022/05/01 04:44:21;;;;;;;15.50;7.30;;;13.90;99.90;;;;;;4879830;29;20033;-86
2022/05/01 04:46:49;;;;;;;14.00;7.07;;;14.00;99.90;;;;;;4879739;29;20033;-85
2022/05/01 04:49:20;;;;;;;15.50;6.95;;;14.20;99.90;;;;;;4879655;29;20077;-85
2022/05/01 04:51:47;;;;;;;12.65;6.43;;;14.40;99.90;;;;;;4879702;29;20092;-85
2022/05/01 04:54:13;;;;;;;14.48;6.50;;;14.70;99.90;;;;;;4879661;29;20032;-85
2022/05/01 04:59:45;;;;;;;;;;;15.20;99.90;;;;;;4824551;29;20030;-86
2022/05/01 05:02:11;;;;;;;10.98;5.63;;;15.60;99.90;;;;;;4808656;29;19921;-86
2022/05/01 05:04:38;;;;;;;9.35;6.03;;;15.70;99.90;;;;;;4808481;29;20056;-86
2022/05/01 05:07:04;;;;;;;12.32;5.82;;;16.00;99.90;;;;;;4808520;29;20049;-86
2022/05/01 05:12:16;;;;;;;9.43;5.55;;;16.30;99.90;;;;;;4823895;29;20038;-87
2022/05/01 05:14:43;;;;;;;10.80;5.40;;;16.90;99.90;;;;;;4808274;29;20034;-86
2022/05/01 05:17:10;;;;;;;9.07;5.40;;;16.80;99.90;;;;;;4823414;29;20091;-84
2022/05/01 05:19:37;;;;;;;9.85;5.32;;;16.90;99.90;;;;;;4808620;29;20038;-86
2022/05/01 05:22:04;;;;;;;11.98;4.90;;;16.80;99.90;;;;;;4808313;29;20042;-87
2022/05/01 05:24:31;;;;;;;8.55;5.00;;;17.00;99.90;;;;;;4808387;29;20039;-86
2022/05/01 05:26:58;;;;;;;9.52;4.80;;;17.50;99.90;;;;;;4808357;29;20030;-86
2022/05/01 05:29:24;;;;;;;12.40;4.95;;;17.60;99.90;;;;;;4811267;29;20042;-87
2022/05/01 05:31:51;;;;;;;7.93;4.60;;;17.50;99.90;;;;;;4848303;29;20067;-87
2022/05/01 05:34:17;;;;;;;7.45;4.93;;;18.00;99.90;;;;;;4879323;29;20105;-87
2022/05/01 05:36:44;;;;;;;7.25;4.03;;;17.10;99.90;;;;;;4879053;29;20033;-87
2022/05/01 05:39:11;;;;;;;9.00;4.55;;;17.40;99.90;;;;;;4848455;29;20033;-87
2022/05/01 05:41:37;;;;;;;8.27;4.28;;;17.50;99.90;;;;;;4879673;29;20123;-87
2022/05/01 05:44:04;;;;;;;10.77;4.57;;;17.60;99.90;;;;;;4867549;29;20037;-86
2022/05/01 05:46:31;;;;;;;8.27;4.90;;;17.90;99.90;;;;;;4882769;29;20037;-87
2022/05/01 05:48:58;;;;;;;9.68;5.15;;;18.10;99.90;;;;;;4852281;29;20037;-87
2022/05/01 05:51:25;;;;;;;9.90;4.43;;;18.20;99.90;;;;;;4882834;29;20104;-87
2022/05/01 05:53:53;;;;;;;11.55;5.00;;;18.50;99.90;;;;;;4882981;29;20039;-87
2022/05/01 05:56:20;;;;;;;11.07;4.40;;;18.30;99.90;;;;;;4852183;29;20065;-86
2022/05/01 05:58:47;;;;;;;7.10;3.88;;;18.10;99.90;;;;;;4867161;29;20033;-87
2022/05/01 06:01:14;;;;;;;10.40;4.22;;;18.40;99.90;;;;;;4882694;29;20136;-87
2022/05/01 06:03:41;;;;;;;6.90;3.92;;;19.30;99.90;;;;;;4882403;29;20069;-87
2022/05/01 06:06:08;;;;;;;5.50;3.42;;;18.40;99.90;;;;;;4882719;29;20033;-88
2022/05/01 06:08:38;;;;;;;5.10;3.50;;;19.90;99.90;;;;;;4851827;29;20499;-89
2022/05/01 06:11:05;;;;;;;8.57;3.90;;;20.20;99.90;;;;;;4883281;29;20074;-87
2022/05/01 06:13:32;;;;;;;8.02;4.00;;;19.40;99.90;;;;;;4851675;29;20099;-89
2022/05/01 06:15:59;;;;;;;4.95;3.47;;;19.40;99.90;;;;;;4882463;29;20033;-86
2022/05/01 06:18:26;;;;;;;10.73;3.35;;;18.80;99.90;;;;;;4852024;29;20502;-89
2022/05/01 06:20:53;;;;;;;5.78;3.67;;;19.10;99.90;;;;;;4882580;29;20029;-85
2022/05/01 06:23:21;;;;;;;5.25;2.83;;;19.90;99.90;;;;;;4882541;29;20120;-86
2022/05/01 06:25:49;;;;;;;6.18;3.55;;;20.40;99.90;;;;;;4882259;29;20127;-85
2022/05/01 06:28:17;;;;;;;6.88;2.90;;;21.30;99.90;;;;;;4881978;29;20047;-85
2022/05/01 06:30:46;;;;;;;7.00;3.20;;;22.40;99.90;;;;;;4881883;29;20025;-85
2022/05/01 06:33:15;;;;;;;5.50;2.83;;;21.10;99.90;;;;;;4851256;29;20041;-85
2022/05/01 06:35:48;;;;;;;5.93;3.25;;;19.90;99.90;;;;;;4882039;29;20036;-85
2022/05/01 06:38:16;;;;;;;5.88;3.38;;;19.30;99.90;;;;;;4851240;29;20037;-85
2022/05/01 06:40:46;;;;;;;6.30;2.90;;;19.10;99.90;;;;;;4881973;29;20036;-85
2022/05/01 06:43:18;;;;;;;5.63;3.00;;;19.10;99.90;;;;;;4882452;29;20029;-84
2022/05/01 06:45:47;;;;;;;4.13;2.70;;;19.80;99.90;;;;;;4851209;29;20037;-85
2022/05/01 06:48:14;;;;;;;3.70;2.55;;;20.00;99.90;;;;;;4866299;29;20057;-84
2022/05/01 06:50:41;;;;;;;4.45;2.70;;;19.70;99.90;;;;;;4882426;29;20033;-81
2022/05/01 06:53:08;;;;;;;4.95;2.72;;;19.90;99.90;;;;;;4881554;29;20072;-86
2022/05/01 06:55:35;;;;;;;6.65;2.80;;;20.10;99.90;;;;;;4881605;29;20029;-84
2022/05/01 06:58:01;;;;;;;4.22;2.60;;;20.40;99.90;;;;;;4881919;29;20387;-84
2022/05/01 07:00:28;;;;;;;3.47;2.65;;;20.10;99.90;;;;;;4881541;29;20093;-88
2022/05/01 07:02:55;;;;;;;3.30;2.80;;;19.50;99.90;;;;;;4879329;29;20097;-88
2022/05/01 07:05:22;;;;;;;5.10;3.00;;;19.70;99.90;;;;;;4856916;29;20038;-86
2022/05/01 07:07:51;;;;;;;9.65;2.80;;;19.60;99.90;;;;;;4870831;29;20084;-87
2022/05/01 07:10:19;;;;;;;6.75;2.88;;;19.60;99.90;;;;;;4870452;29;20021;-85
2022/05/01 07:12:48;;;;;;;6.15;3.28;;;20.40;99.90;;;;;;4849580;29;20052;-86
2022/05/01 07:15:15;;;;;;;6.85;3.42;;;20.00;99.90;;;;;;4870187;29;20181;-87
2022/05/01 07:17:43;;;;;;;5.28;3.17;;;19.40;99.90;;;;;;4854458;29;20464;-87
2022/05/01 07:20:10;;;;;;;6.63;3.30;;;19.90;99.90;;;;;;4870847;29;20033;-86
2022/05/01 07:22:37;;;;;;;4.30;3.17;;;20.00;99.90;;;;;;4871439;29;20181;-86
2022/05/01 07:25:04;;;;;;;6.07;2.80;;;20.10;99.90;;;;;;4879614;29;20024;-87
2022/05/01 07:27:34;;;;;;;6.45;3.22;;;20.50;99.90;;;;;;4854906;29;20038;-86
2022/05/01 07:30:00;;;;;;;6.75;3.35;;;20.80;99.90;;;;;;4854257;29;20120;-87
2022/05/01 07:32:27;;;;;;;8.52;3.08;;;21.60;99.90;;;;;;4879101;29;20029;-87
2022/05/01 07:34:57;;;;;;;6.15;3.10;;;22.30;99.90;;;;;;4855320;29;20124;-89
2022/05/01 07:37:26;;;;;;;6.72;3.42;;;22.10;99.90;;;;;;4870431;29;20153;-90
2022/05/01 07:39:54;;;;;;;5.28;3.50;;;21.70;99.90;;;;;;4878422;29;20051;-88
2022/05/01 07:42:24;;;;;;;9.02;3.40;;;21.30;99.90;;;;;;4856580;29;20089;-89
2022/05/01 07:44:51;;;;;;;4.15;3.30;;;21.40;99.90;;;;;;4854903;29;20029;-90
2022/05/01 07:47:18;;;;;;;5.28;3.78;;;20.30;99.90;;;;;;4869464;29;20033;-92
2022/05/01 07:49:46;;;;;;;4.63;3.60;;;20.50;99.90;;;;;;4854547;29;20057;-93
2022/05/01 07:52:13;;;;;;;7.35;3.58;;;20.50;99.90;;;;;;4857733;29;20509;-90
2022/05/01 07:54:39;;;;;;;15.43;3.95;;;20.60;99.90;;;;;;4850387;29;20048;-88
2022/05/01 07:57:07;;;;;;;6.32;3.72;;;20.50;99.90;;;;;;4854203;29;20041;-89
2022/05/01 07:59:33;;;;;;;8.43;3.97;;;20.00;99.90;;;;;;4869238;29;20131;-90
2022/05/01 08:02:00;;;;;;;9.38;3.60;;;20.70;99.90;;;;;;4878509;29;20045;-89
2022/05/01 08:04:31;;;;;;;6.20;4.22;;;22.10;99.90;;;;;;4846313;29;20392;-90
2022/05/01 08:07:03;;;;;;;7.10;4.35;;;22.30;99.90;;;;;;4846992;29;20038;-89
2022/05/01 08:09:31;;;;;;;7.68;4.70;;;21.50;99.90;;;;;;4848552;29;20492;-89
2022/05/01 08:11:58;;;;;;;7.00;4.82;;;21.80;99.90;;;;;;4847162;29;20033;-91
2022/05/01 08:14:26;;;;;;;6.75;5.07;;;22.20;99.90;;;;;;4851898;29;20124;-90
2022/05/01 08:16:55;;;;;;;9.85;5.70;;;21.50;99.90;;;;;;4848115;29;20033;-91
2022/05/01 08:22:07;;;;;;;12.60;6.22;;;20.90;99.90;;;;;;4861719;29;20046;-89
2022/05/01 08:24:34;;;;;;;11.52;5.70;;;21.20;99.90;;;;;;4846232;29;20036;-91
2022/05/01 08:27:05;;;;;;;10.98;5.95;;;21.70;99.90;;;;;;4862146;29;20037;-91
2022/05/01 08:29:34;;;;;;;11.35;5.97;;;21.10;99.90;;;;;;4846609;29;20026;-91
2022/05/01 08:32:01;;;;;;;9.40;5.38;;;20.90;99.90;;;;;;4846142;29;20030;-90
2022/05/01 08:34:27;;;;;;;12.43;5.38;;;21.20;99.90;;;;;;4846322;29;20036;-92
2022/05/01 08:37:05;;;;;;;9.18;5.25;;;22.20;99.90;;;;;;4849328;29;20037;-93
2022/05/01 08:39:32;;;;;;;9.13;5.47;;;21.80;99.90;;;;;;4847685;29;20032;-91
2022/05/01 08:42:01;;;;;;;11.52;5.78;;;21.60;99.90;;;;;;4846443;29;20128;-91
2022/05/01 08:44:35;;;;;;;9.98;5.28;;;21.80;99.90;;;;;;4846558;29;20037;-93
2022/05/01 08:47:24;;;;;;;9.75;5.80;;;22.40;99.90;;;;;;4846091;29;20495;-93
2022/05/01 08:49:58;;;;;;;11.80;5.80;;;21.80;99.90;;;;;;4846117;29;20068;-91
2022/05/01 08:52:29;;;;;;;9.00;5.32;;;22.60;99.90;;;;;;4846725;29;20468;-92
2022/05/01 08:54:58;;;;;;;9.50;5.20;;;22.70;99.90;;;;;;4861693;29;20058;-92
2022/05/01 08:57:32;;;;;;;8.93;5.43;;;21.80;99.90;;;;;;4846190;29;20108;-92
2022/05/01 09:00:00;;;;;;;9.50;5.57;;;22.70;99.90;;;;;;4845661;29;20484;-92
2022/05/01 09:02:27;;;;;;;11.73;6.53;;;22.90;99.90;;;;;;4845884;29;20111;-91
2022/05/01 09:04:53;;;;;;;11.13;5.15;;;23.00;99.90;;;;;;4846031;29;20033;-90
2022/05/01 09:07:19;;;;;;;9.38;5.20;;;23.20;99.90;;;;;;4845865;29;20029;-91
2022/05/01 09:09:46;;;;;;;9.80;5.07;;;23.20;99.90;;;;;;4845561;29;20041;-92
2022/05/01 09:14:57;;;;;;;10.75;5.50;;;22.40;99.90;;;;;;4861018;29;20060;-90
2022/05/01 09:17:26;;;;;;;9.30;5.97;;;22.30;99.90;;;;;;4860784;29;20590;-94
2022/05/01 09:20:05;;;;;;;11.20;5.25;;;21.70;99.90;;;;;;4860936;29;20037;-91
2022/05/01 09:22:58;;;;;;;8.10;5.53;;;22.00;99.90;;;;;;4845613;29;20492;-91
2022/05/01 09:25:27;;;;;;;18.02;6.20;;;22.10;99.90;;;;;;4846170;29;20047;-92
2022/05/01 09:28:01;;;;;;;13.07;6.25;;;22.40;99.90;;;;;;4860645;29;20037;-91
2022/05/01 09:30:38;;;;;;;13.15;5.65;;;22.90;99.90;;;;;;4845452;29;20037;-92
2022/05/01 09:33:15;;;;;;;13.05;5.82;;;22.80;99.90;;;;;;4845487;29;20029;-94
2022/05/01 09:35:42;;;;;;;12.77;5.97;;;22.80;99.90;;;;;;4860663;29;20125;-91
2022/05/01 09:38:21;;;;;;;11.02;6.25;;;22.40;99.90;;;;;;4845344;29;20030;-90
2022/05/01 09:41:00;;;;;;;9.27;5.32;;;22.50;99.90;;;;;;4845162;29;20048;-91
2022/05/01 09:43:47;;;;;;;15.48;6.18;;;22.10;99.90;;;;;;4845394;29;20042;-91
2022/05/01 09:46:14;;;;;;;12.50;5.32;;;22.10;99.90;;;;;;4845440;29;20037;-92
2022/05/01 09:48:43;;;;;;;12.18;5.63;;;22.10;99.90;;;;;;4845304;29;20026;-93
2022/05/01 09:51:19;;;;;;;11.40;5.43;;;22.40;99.90;;;;;;4860836;29;20066;-91
2022/05/01 09:53:46;;;;;;;11.32;6.22;;;22.60;99.90;;;;;;4860444;29;20037;-91
2022/05/01 09:56:13;;;;;;;9.52;5.05;;;22.30;99.90;;;;;;4845070;29;20064;-92
2022/05/01 09:58:43;;;;;;;14.05;5.50;;;22.50;99.90;;;;;;4845179;29;20030;-92
2022/05/01 10:01:14;;;;;;;12.85;6.05;;;22.40;99.90;;;;;;4844912;29;20400;-91
2022/05/01 10:03:43;;;;;;;10.07;5.78;;;22.40;99.90;;;;;;4845118;29;20053;-93
2022/05/01 10:06:17;;;;;;;14.57;7.38;;;21.90;99.90;;;;;;4845086;29;20120;-90
2022/05/01 10:08:45;;;;;;;13.68;6.75;;;21.50;99.90;;;;;;4845001;29;20040;-90
2022/05/01 10:11:14;;;;;;;20.85;7.03;;;21.10;99.90;;;;;;4844957;29;20048;-91
2022/05/01 10:13:41;;;;;;;11.60;6.35;;;21.00;99.90;;;;;;4845253;29;20101;-92
2022/05/01 10:16:11;;;;;;;15.82;6.85;;;21.50;99.90;;;;;;4845101;29;20037;-91
2022/05/01 10:18:38;;;;;;;13.85;6.57;;;21.70;99.90;;;;;;4844831;29;20061;-93
2022/05/01 10:21:06;;;;;;;14.30;6.45;;;21.50;99.90;;;;;;4844769;29;20042;-92
2022/05/01 10:23:34;;;;;;;15.52;7.18;;;21.40;99.90;;;;;;4845504;29;20082;-93
2022/05/01 10:26:06;;;;;;;14.25;7.05;;;21.40;99.90;;;;;;4844957;29;20061;-90
2022/05/01 10:29:04;;;;;;;12.43;6.68;;;21.50;99.90;;;;;;4846836;29;20041;-91
2022/05/01 10:35:17;;;;;;;13.88;6.60;;;22.10;99.90;;;;;;4863894;29;20041;-92
2022/05/01 10:38:00;;;;;;;12.45;6.57;;;22.20;99.90;;;;;;4848383;29;20058;-92
2022/05/01 10:40:39;;;;;;;10.88;5.28;;;22.20;99.90;;;;;;4863573;29;20045;-93
2022/05/01 10:43:23;;;;;;;9.85;4.65;;;22.50;99.90;;;;;;4848719;29;20129;-92
2022/05/01 10:45:50;;;;;;;14.25;6.35;;;22.80;99.90;;;;;;4863730;29;20025;-91
2022/05/01 10:48:32;;;;;;;11.75;5.47;;;22.80;99.90;;;;;;4848002;29;20041;-93
2022/05/01 10:51:38;;;;;;;10.55;5.65;;;22.80;99.90;;;;;;4863384;29;20034;-92
2022/05/01 10:54:14;;;;;;;21.50;6.00;;;22.30;99.90;;;;;;4863213;29;20044;-91
2022/05/01 10:56:42;;;;;;;13.23;5.38;;;21.80;99.90;;;;;;4863238;29;20037;-93
2022/05/01 10:59:38;;;;;;;9.02;4.88;;;21.70;99.90;;;;;;4848167;29;20033;-91
2022/05/01 11:02:07;;;;;;;14.70;6.18;;;21.70;99.90;;;;;;4863095;29;20415;-92
2022/05/01 11:04:42;;;;;;;11.48;5.70;;;21.70;99.90;;;;;;4867731;29;20033;-92
2022/05/01 11:07:11;;;;;;;10.55;5.30;;;21.70;99.90;;;;;;4863089;29;20033;-92
2022/05/01 11:09:39;;;;;;;17.88;5.50;;;21.80;99.90;;;;;;4847684;29;20029;-93
2022/05/01 11:12:10;;;;;;;15.02;5.72;;;21.90;99.90;;;;;;4847662;29;20041;-94
2022/05/01 11:14:52;;;;;;;15.63;5.32;;;21.80;99.90;;;;;;4847879;29;20029;-92
2022/05/01 11:17:39;;;;;;;13.15;5.60;;;21.90;99.90;;;;;;4863004;29;20038;-94
2022/05/01 11:20:23;;;;;;;15.27;5.35;;;22.40;99.90;;;;;;4862875;29;20037;-94
2022/05/01 11:22:50;;;;;;;14.48;4.78;;;21.90;99.90;;;;;;4847480;29;20037;-94
2022/05/01 11:25:40;;;;;;;17.40;5.05;;;22.70;99.90;;;;;;4847505;29;20440;-93
2022/05/01 11:28:07;;;;;;;15.88;5.35;;;22.50;99.90;;;;;;4847416;29;20070;-91
2022/05/01 11:30:36;;;;;;;19.08;6.50;;;22.30;99.90;;;;;;4848959;29;20081;-92
2022/05/01 11:33:06;;;;;;;15.95;5.60;;;21.60;99.90;;;;;;4847580;29;20030;-94
2022/05/01 11:36:00;;;;;;;16.23;6.25;;;22.00;99.90;;;;;;4847740;29;20021;-93
2022/05/01 11:38:39;;;;;;;12.10;5.68;;;21.80;99.90;;;;;;4826841;29;20041;-92
2022/05/01 11:41:07;;;;;;;17.00;6.55;;;22.00;99.90;;;;;;4861975;29;20053;-91
2022/05/01 11:43:35;;;;;;;16.38;5.05;;;21.90;99.90;;;;;;4847137;29;20062;-93
2022/05/01 11:46:04;;;;;;;19.40;4.30;;;21.90;99.90;;;;;;4847307;29;20497;-94
2022/05/01 11:48:34;;;;;;;12.95;4.60;;;22.30;99.90;;;;;;4847068;29;20045;-93
2022/05/01 11:51:00;;;;;;;16.83;6.05;;;22.10;99.90;;;;;;4847145;29;20063;-93
2022/05/01 11:53:29;;;;;;;16.42;5.53;;;21.60;99.90;;;;;;4847344;29;20029;-91
2022/05/01 12:04:37;;;;;;;13.90;5.55;;;22.30;99.90;;;;;;4863375;29;20647;-91
2022/05/01 12:07:09;;;;;;;12.00;4.97;;;22.00;99.90;;;;;;4846658;29;20043;-92
2022/05/01 12:09:38;;;;;;;19.42;5.35;;;22.20;99.90;;;;;;4847189;29;20095;-94
2022/05/01 12:12:05;;;;;;;17.85;5.32;;;22.00;99.90;;;;;;4850096;29;20120;-94
2022/05/01 12:14:32;;;;;;;18.13;5.88;;;21.90;99.90;;;;;;4864087;29;20030;-91
2022/05/01 12:16:59;;;;;;;23.67;5.70;;;21.70;99.90;;;;;;4848818;29;20033;-92
2022/05/01 12:19:39;;;;;;;14.05;5.78;;;21.70;99.90;;;;;;4852605;29;20050;-93
2022/05/01 12:22:08;;;;;;;17.80;5.93;;;21.70;99.90;;;;;;4870139;29;20041;-93
2022/05/01 12:24:36;;;;;;;15.57;5.72;;;21.70;99.90;;;;;;4853516;29;20035;-95
2022/05/01 12:27:03;;;;;;;19.23;5.43;;;21.40;99.90;;;;;;4853644;29;20038;-92
2022/05/01 12:29:30;;;;;;;12.25;5.38;;;21.20;99.90;;;;;;4853102;29;20029;-91
2022/05/01 12:32:06;;;;;;;16.00;5.05;;;21.50;99.90;;;;;;4869870;29;20471;-91
2022/05/01 12:34:57;;;;;;;17.98;5.18;;;21.30;99.90;;;;;;4879124;29;20029;-92
2022/05/01 12:37:27;;;;;;;14.98;4.88;;;21.50;99.90;;;;;;4841484;29;20034;-92
2022/05/01 12:39:59;;;;;;;18.75;5.82;;;21.60;99.90;;;;;;4865821;29;20037;-93
2022/05/01 12:45:22;;;;;;;17.67;5.68;;;21.60;99.90;;;;;;4865316;29;20122;-92
2022/05/01 12:47:51;;;;;;;12.38;5.40;;;21.70;99.90;;;;;;4846853;29;20069;-91
2022/05/01 12:50:21;;;;;;;13.82;5.88;;;21.70;99.90;;;;;;4845581;29;20025;-92
2022/05/01 12:52:50;;;;;;;13.98;5.85;;;21.60;99.90;;;;;;4862397;29;20062;-91
2022/05/01 12:55:21;;;;;;;15.75;5.55;;;21.40;99.90;;;;;;4846343;29;20026;-92
2022/05/01 12:57:59;;;;;;;17.50;5.85;;;21.50;99.90;;;;;;4845749;29;20042;-93
2022/05/01 13:00:46;;;;;;;22.70;6.07;;;21.20;99.90;;;;;;4845705;29;20044;-92
2022/05/01 13:03:33;;;;;;;28.40;6.78;;;21.20;99.90;;;;;;4846720;29;20089;-92
2022/05/01 13:06:21;;;;;;;15.68;5.47;;;20.90;99.90;;;;;;4874594;29;20098;-92
2022/05/01 13:09:09;;;;;;;14.43;5.80;;;21.00;99.90;;;;;;4821596;29;20072;-92
2022/05/01 13:11:38;;;;;;;21.17;6.90;;;20.90;99.90;;;;;;4805097;29;20133;-92
2022/05/01 13:14:23;;;;;;;17.50;5.88;;;20.60;99.90;;;;;;4804569;29;20094;-92
2022/05/01 13:16:51;;;;;;;15.68;6.25;;;20.80;99.90;;;;;;4816854;29;20046;-92
2022/05/01 13:19:20;;;;;;;18.75;6.72;;;20.90;99.90;;;;;;4815373;29;20039;-95
2022/05/01 13:21:53;;;;;;;14.77;6.97;;;20.90;99.90;;;;;;4815290;29;20046;-92
2022/05/01 13:24:29;;;;;;;13.15;5.68;;;20.70;99.90;;;;;;4817600;29;20049;-92
2022/05/01 13:27:04;;;;;;;15.50;5.95;;;20.80;99.90;;;;;;4818813;29;20035;-92
2022/05/01 13:29:32;;;;;;;20.02;6.50;;;20.90;99.90;;;;;;4808657;29;20042;-92
2022/05/01 13:32:01;;;;;;;18.05;6.50;;;21.00;99.90;;;;;;4808179;29;20531;-92